sensor_id;sensor_type;location;lat;lon;timestamp;P1;durP1;ratioP1;P2;durP2;ratioP2
73672;SDS011;61972;19.480;-99.240;2023-04-24T00:00:59;9.23;;;4.77;;
73672;SDS011;61972;19.480;-99.240;2023-04-24T00:03:26;7.43;;;4.30;;
73672;SDS011;61972;19.480;-99.240;2023-04-24T00:05:53;6.63;;;4.15;;
73672;SDS011;61972;19.480;-99.240;2023-04-24T00:08:20;6.15;;;4.07;;
73672;SDS011;61972;19.480;-99.240;2023-04-24T00:10:47;6.05;;;4.05;;
73672;SDS011;61972;19.480;-99.240;2023-04-24T00:13:14;5.57;;;3.73;;
73672;SDS011;61972;19.480;-99.240;2023-04-24T00:15:40;7.13;;;4.40;;
73672;SDS011;61972;19.480;-99.240;2023-04-24T00:18:06;7.50;;;4.18;;
73672;SDS011;61972;19.480;-99.240;2023-04-24T00:20:32;8.32;;;4.30;;
73672;SDS011;61972;19.480;-99.240;2023-04-24T00:23:00;7.68;;;4.70;;
73672;SDS011;61972;19.480;-99.240;2023-04-24T00:25:26;6.37;;;4.60;;
73672;SDS011;61972;19.480;-99.240;2023-04-24T00:27:52;7.55;;;5.10;;
73672;SDS011;61972;19.480;-99.240;2023-04-24T00:30:19;8.32;;;5.22;;
73672;SDS011;61972;19.480;-99.240;2023-04-24T00:32:45;7.60;;;5.90;;
73672;SDS011;61972;19.480;-99.240;2023-04-24T00:35:11;8.88;;;5.35;;
73672;SDS011;61972;19.480;-99.240;2023-04-24T00:37:37;7.60;;;4.90;;
73672;SDS011;61972;19.480;-99.240;2023-04-24T00:40:04;7.40;;;5.22;;
73672;SDS011;61972;19.480;-99.240;2023-04-24T00:42:31;7.00;;;5.25;;
73672;SDS011;61972;19.480;-99.240;2023-04-24T00:44:58;10.52;;;5.38;;
73672;SDS011;61972;19.480;-99.240;2023-04-24T00:47:25;10.32;;;5.40;;
73672;SDS011;61972;19.480;-99.240;2023-04-24T00:49:51;9.20;;;5.27;;
73672;SDS011;61972;19.480;-99.240;2023-04-24T00:52:17;7.32;;;5.50;;
73672;SDS011;61972;19.480;-99.240;2023-04-24T00:54:43;9.25;;;5.65;;
73672;SDS011;61972;19.480;-99.240;2023-04-24T00:57:13;9.90;;;5.68;;
73672;SDS011;61972;19.480;-99.240;2023-04-24T00:59:41;8.82;;;5.13;;
73672;SDS011;61972;19.480;-99.240;2023-04-24T01:02:08;7.03;;;5.50;;
73672;SDS011;61972;19.480;-99.240;2023-04-24T01:04:36;7.07;;;5.50;;
73672;SDS011;61972;19.480;-99.240;2023-04-24T01:07:02;10.10;;;5.20;;
73672;SDS011;61972;19.480;-99.240;2023-04-24T01:09:35;6.57;;;4.95;;
73672;SDS011;61972;19.480;-99.240;2023-04-24T01:12:08;9.85;;;5.95;;
73672;SDS011;61972;19.480;-99.240;2023-04-24T01:14:35;7.97;;;5.67;;
73672;SDS011;61972;19.480;-99.240;2023-04-24T01:17:02;7.63;;;5.38;;
73672;SDS011;61972;19.480;-99.240;2023-04-24T01:19:28;8.60;;;5.65;;
73672;SDS011;61972;19.480;-99.240;2023-04-24T01:21:55;14.25;;;5.78;;
73672;SDS011;61972;19.480;-99.240;2023-04-24T01:24:24;8.05;;;5.60;;
73672;SDS011;61972;19.480;-99.240;2023-04-24T01:26:50;7.70;;;6.10;;
73672;SDS011;61972;19.480;-99.240;2023-04-24T01:29:17;6.90;;;5.50;;
73672;SDS011;61972;19.480;-99.240;2023-04-24T01:31:43;9.90;;;5.60;;
73672;SDS011;61972;19.480;-99.240;2023-04-24T01:34:09;8.00;;;6.25;;
73672;SDS011;61972;19.480;-99.240;2023-04-24T01:36:36;8.27;;;5.70;;
73672;SDS011;61972;19.480;-99.240;2023-04-24T01:39:03;7.37;;;5.77;;
73672;SDS011;61972;19.480;-99.240;2023-04-24T01:41:29;8.23;;;5.65;;
73672;SDS011;61972;19.480;-99.240;2023-04-24T01:43:56;9.25;;;5.60;;
73672;SDS011;61972;19.480;-99.240;2023-04-24T01:46:23;9.77;;;6.05;;
73672;SDS011;61972;19.480;-99.240;2023-04-24T01:48:50;9.38;;;6.05;;
73672;SDS011;61972;19.480;-99.240;2023-04-24T01:51:17;10.00;;;6.30;;
73672;SDS011;61972;19.480;-99.240;2023-04-24T01:53:43;8.73;;;5.78;;
73672;SDS011;61972;19.480;-99.240;2023-04-24T01:56:10;9.95;;;6.25;;
73672;SDS011;61972;19.480;-99.240;2023-04-24T01:58:36;7.78;;;6.18;;
73672;SDS011;61972;19.480;-99.240;2023-04-24T02:01:03;8.98;;;6.55;;
73672;SDS011;61972;19.480;-99.240;2023-04-24T02:03:29;7.80;;;6.40;;
73672;SDS011;61972;19.480;-99.240;2023-04-24T02:05:55;9.40;;;7.15;;
73672;SDS011;61972;19.480;-99.240;2023-04-24T02:08:21;10.55;;;6.88;;
73672;SDS011;61972;19.480;-99.240;2023-04-24T02:10:47;9.80;;;6.63;;
73672;SDS011;61972;19.480;-99.240;2023-04-24T02:13:13;12.73;;;7.05;;
73672;SDS011;61972;19.480;-99.240;2023-04-24T02:15:39;11.00;;;7.50;;
73672;SDS011;61972;19.480;-99.240;2023-04-24T02:18:05;9.35;;;7.45;;
73672;SDS011;61972;19.480;-99.240;2023-04-24T02:20:32;12.88;;;7.57;;
73672;SDS011;61972;19.480;-99.240;2023-04-24T02:23:00;11.82;;;7.50;;
73672;SDS011;61972;19.480;-99.240;2023-04-24T02:25:27;13.90;;;7.88;;
73672;SDS011;61972;19.480;-99.240;2023-04-24T02:27:53;12.97;;;7.80;;
73672;SDS011;61972;19.480;-99.240;2023-04-24T02:30:19;12.32;;;7.65;;
73672;SDS011;61972;19.480;-99.240;2023-04-24T02:32:45;10.80;;;8.00;;
73672;SDS011;61972;19.480;-99.240;2023-04-24T02:35:11;15.68;;;8.73;;
73672;SDS011;61972;19.480;-99.240;2023-04-24T02:37:37;13.27;;;8.10;;
73672;SDS011;61972;19.480;-99.240;2023-04-24T02:40:04;10.37;;;8.10;;
73672;SDS011;61972;19.480;-99.240;2023-04-24T02:42:31;11.43;;;8.18;;
73672;SDS011;61972;19.480;-99.240;2023-04-24T02:44:57;11.63;;;8.18;;
73672;SDS011;61972;19.480;-99.240;2023-04-24T02:47:23;12.65;;;8.65;;
73672;SDS011;61972;19.480;-99.240;2023-04-24T02:49:49;10.13;;;7.80;;
73672;SDS011;61972;19.480;-99.240;2023-04-24T02:52:15;10.87;;;8.33;;
73672;SDS011;61972;19.480;-99.240;2023-04-24T02:54:42;11.18;;;8.55;;
73672;SDS011;61972;19.480;-99.240;2023-04-24T02:57:08;12.77;;;7.93;;
73672;SDS011;61972;19.480;-99.240;2023-04-24T02:59:34;11.25;;;7.82;;
73672;SDS011;61972;19.480;-99.240;2023-04-24T03:02:00;10.55;;;7.95;;
73672;SDS011;61972;19.480;-99.240;2023-04-24T03:04:27;13.50;;;8.63;;
73672;SDS011;61972;19.480;-99.240;2023-04-24T03:06:53;12.95;;;8.10;;
73672;SDS011;61972;19.480;-99.240;2023-04-24T03:09:23;11.25;;;8.07;;
73672;SDS011;61972;19.480;-99.240;2023-04-24T03:11:49;12.95;;;8.30;;
73672;SDS011;61972;19.480;-99.240;2023-04-24T03:14:15;11.20;;;8.15;;
73672;SDS011;61972;19.480;-99.240;2023-04-24T03:16:42;11.57;;;7.23;;
73672;SDS011;61972;19.480;-99.240;2023-04-24T03:19:08;12.48;;;8.23;;
73672;SDS011;61972;19.480;-99.240;2023-04-24T03:21:34;11.90;;;8.15;;
73672;SDS011;61972;19.480;-99.240;2023-04-24T03:24:01;16.08;;;8.48;;
73672;SDS011;61972;19.480;-99.240;2023-04-24T03:26:27;18.42;;;9.20;;
73672;SDS011;61972;19.480;-99.240;2023-04-24T03:28:53;12.93;;;9.23;;
73672;SDS011;61972;19.480;-99.240;2023-04-24T03:31:19;13.93;;;9.50;;
73672;SDS011;61972;19.480;-99.240;2023-04-24T03:33:46;16.13;;;10.02;;
73672;SDS011;61972;19.480;-99.240;2023-04-24T03:36:12;13.43;;;10.07;;
73672;SDS011;61972;19.480;-99.240;2023-04-24T03:38:38;15.30;;;10.52;;
73672;SDS011;61972;19.480;-99.240;2023-04-24T03:41:05;16.17;;;10.83;;
73672;SDS011;61972;19.480;-99.240;2023-04-24T03:43:31;14.65;;;10.75;;
73672;SDS011;61972;19.480;-99.240;2023-04-24T03:45:58;13.27;;;10.45;;
73672;SDS011;61972;19.480;-99.240;2023-04-24T03:48:24;19.38;;;10.73;;
73672;SDS011;61972;19.480;-99.240;2023-04-24T03:50:51;12.35;;;10.27;;
73672;SDS011;61972;19.480;-99.240;2023-04-24T03:53:19;13.00;;;10.37;;
73672;SDS011;61972;19.480;-99.240;2023-04-24T03:55:46;17.63;;;10.75;;
73672;SDS011;61972;19.480;-99.240;2023-04-24T03:58:12;16.08;;;11.02;;
73672;SDS011;61972;19.480;-99.240;2023-04-24T04:00:41;14.27;;;10.70;;
73672;SDS011;61972;19.480;-99.240;2023-04-24T04:03:07;20.85;;;10.70;;
73672;SDS011;61972;19.480;-99.240;2023-04-24T04:05:33;16.37;;;10.73;;
73672;SDS011;61972;19.480;-99.240;2023-04-24T04:07:59;15.45;;;11.43;;
73672;SDS011;61972;19.480;-99.240;2023-04-24T04:10:25;14.95;;;11.48;;
73672;SDS011;61972;19.480;-99.240;2023-04-24T04:12:51;16.25;;;10.80;;
73672;SDS011;61972;19.480;-99.240;2023-04-24T04:15:17;16.60;;;11.63;;
73672;SDS011;61972;19.480;-99.240;2023-04-24T04:17:43;16.60;;;11.37;;
73672;SDS011;61972;19.480;-99.240;2023-04-24T04:20:11;16.38;;;12.00;;
73672;SDS011;61972;19.480;-99.240;2023-04-24T04:22:37;15.70;;;11.32;;
73672;SDS011;61972;19.480;-99.240;2023-04-24T04:25:03;18.35;;;11.43;;
73672;SDS011;61972;19.480;-99.240;2023-04-24T04:27:30;15.93;;;11.27;;
73672;SDS011;61972;19.480;-99.240;2023-04-24T04:30:00;13.97;;;11.37;;
73672;SDS011;61972;19.480;-99.240;2023-04-24T04:32:32;15.05;;;11.55;;
73672;SDS011;61972;19.480;-99.240;2023-04-24T04:35:00;16.08;;;11.05;;
73672;SDS011;61972;19.480;-99.240;2023-04-24T04:37:34;14.85;;;11.20;;
73672;SDS011;61972;19.480;-99.240;2023-04-24T04:40:00;14.13;;;11.27;;
73672;SDS011;61972;19.480;-99.240;2023-04-24T04:42:32;15.70;;;11.13;;
73672;SDS011;61972;19.480;-99.240;2023-04-24T04:45:06;13.18;;;10.68;;
73672;SDS011;61972;19.480;-99.240;2023-04-24T04:47:36;14.32;;;10.73;;
73672;SDS011;61972;19.480;-99.240;2023-04-24T04:50:03;16.40;;;11.18;;
73672;SDS011;61972;19.480;-99.240;2023-04-24T04:52:30;14.93;;;11.52;;
73672;SDS011;61972;19.480;-99.240;2023-04-24T04:54:56;15.87;;;11.47;;
73672;SDS011;61972;19.480;-99.240;2023-04-24T04:57:23;13.30;;;11.10;;
73672;SDS011;61972;19.480;-99.240;2023-04-24T04:59:49;14.60;;;11.02;;
73672;SDS011;61972;19.480;-99.240;2023-04-24T05:02:15;15.77;;;11.02;;
73672;SDS011;61972;19.480;-99.240;2023-04-24T05:04:41;13.20;;;10.60;;
73672;SDS011;61972;19.480;-99.240;2023-04-24T05:07:07;13.53;;;10.57;;
73672;SDS011;61972;19.480;-99.240;2023-04-24T05:09:33;13.10;;;10.30;;
73672;SDS011;61972;19.480;-99.240;2023-04-24T05:11:59;11.45;;;9.70;;
73672;SDS011;61972;19.480;-99.240;2023-04-24T05:14:25;13.27;;;9.95;;
73672;SDS011;61972;19.480;-99.240;2023-04-24T05:16:51;11.93;;;9.80;;
73672;SDS011;61972;19.480;-99.240;2023-04-24T05:19:17;13.33;;;9.83;;
73672;SDS011;61972;19.480;-99.240;2023-04-24T05:21:44;12.85;;;9.63;;
73672;SDS011;61972;19.480;-99.240;2023-04-24T05:24:10;13.05;;;9.27;;
73672;SDS011;61972;19.480;-99.240;2023-04-24T05:26:36;14.32;;;9.55;;
73672;SDS011;61972;19.480;-99.240;2023-04-24T05:29:03;12.32;;;10.05;;
73672;SDS011;61972;19.480;-99.240;2023-04-24T05:31:29;11.87;;;9.67;;
73672;SDS011;61972;19.480;-99.240;2023-04-24T05:33:56;14.68;;;9.90;;
73672;SDS011;61972;19.480;-99.240;2023-04-24T05:36:22;12.88;;;9.85;;
73672;SDS011;61972;19.480;-99.240;2023-04-24T05:38:48;11.80;;;9.43;;
73672;SDS011;61972;19.480;-99.240;2023-04-24T05:41:14;16.58;;;9.88;;
73672;SDS011;61972;19.480;-99.240;2023-04-24T05:43:40;14.63;;;9.37;;
73672;SDS011;61972;19.480;-99.240;2023-04-24T05:46:06;12.70;;;10.10;;
73672;SDS011;61972;19.480;-99.240;2023-04-24T05:48:32;13.85;;;9.00;;
73672;SDS011;61972;19.480;-99.240;2023-04-24T05:50:58;10.98;;;9.50;;
73672;SDS011;61972;19.480;-99.240;2023-04-24T05:53:24;12.27;;;8.90;;
73672;SDS011;61972;19.480;-99.240;2023-04-24T05:55:51;11.47;;;9.10;;
73672;SDS011;61972;19.480;-99.240;2023-04-24T05:58:17;11.48;;;9.10;;
73672;SDS011;61972;19.480;-99.240;2023-04-24T06:00:43;12.95;;;8.65;;
73672;SDS011;61972;19.480;-99.240;2023-04-24T06:03:11;10.23;;;8.73;;
73672;SDS011;61972;19.480;-99.240;2023-04-24T06:05:37;11.80;;;8.70;;
73672;SDS011;61972;19.480;-99.240;2023-04-24T06:08:03;10.47;;;8.20;;
73672;SDS011;61972;19.480;-99.240;2023-04-24T06:10:29;11.35;;;8.52;;
73672;SDS011;61972;19.480;-99.240;2023-04-24T06:12:56;11.40;;;8.70;;
73672;SDS011;61972;19.480;-99.240;2023-04-24T06:15:27;10.32;;;8.13;;
73672;SDS011;61972;19.480;-99.240;2023-04-24T06:17:56;10.95;;;8.38;;
73672;SDS011;61972;19.480;-99.240;2023-04-24T06:20:23;9.30;;;8.30;;
73672;SDS011;61972;19.480;-99.240;2023-04-24T06:22:49;9.57;;;8.30;;
73672;SDS011;61972;19.480;-99.240;2023-04-24T06:25:15;9.88;;;8.10;;
73672;SDS011;61972;19.480;-99.240;2023-04-24T06:27:41;9.25;;;8.25;;
73672;SDS011;61972;19.480;-99.240;2023-04-24T06:30:08;9.55;;;7.80;;
73672;SDS011;61972;19.480;-99.240;2023-04-24T06:32:34;12.27;;;7.93;;
73672;SDS011;61972;19.480;-99.240;2023-04-24T06:35:00;9.48;;;7.88;;
73672;SDS011;61972;19.480;-99.240;2023-04-24T06:37:26;10.02;;;7.57;;
73672;SDS011;61972;19.480;-99.240;2023-04-24T06:39:52;8.30;;;7.40;;
73672;SDS011;61972;19.480;-99.240;2023-04-24T06:42:19;11.45;;;7.20;;
73672;SDS011;61972;19.480;-99.240;2023-04-24T06:44:47;8.27;;;7.37;;
73672;SDS011;61972;19.480;-99.240;2023-04-24T06:47:13;9.23;;;7.40;;
73672;SDS011;61972;19.480;-99.240;2023-04-24T06:49:39;8.63;;;7.28;;
73672;SDS011;61972;19.480;-99.240;2023-04-24T06:52:05;9.23;;;7.75;;
73672;SDS011;61972;19.480;-99.240;2023-04-24T06:54:31;8.95;;;7.45;;
73672;SDS011;61972;19.480;-99.240;2023-04-24T06:56:58;8.00;;;6.87;;
73672;SDS011;61972;19.480;-99.240;2023-04-24T06:59:26;8.90;;;7.20;;
73672;SDS011;61972;19.480;-99.240;2023-04-24T07:01:53;8.80;;;6.70;;
73672;SDS011;61972;19.480;-99.240;2023-04-24T07:04:20;8.27;;;7.20;;
73672;SDS011;61972;19.480;-99.240;2023-04-24T07:06:46;8.15;;;7.10;;
73672;SDS011;61972;19.480;-99.240;2023-04-24T07:09:14;7.73;;;6.93;;
73672;SDS011;61972;19.480;-99.240;2023-04-24T07:11:44;9.27;;;7.00;;
73672;SDS011;61972;19.480;-99.240;2023-04-24T07:14:11;7.97;;;6.70;;
73672;SDS011;61972;19.480;-99.240;2023-04-24T07:16:37;8.07;;;7.07;;
73672;SDS011;61972;19.480;-99.240;2023-04-24T07:19:04;8.05;;;6.63;;
73672;SDS011;61972;19.480;-99.240;2023-04-24T07:21:30;7.90;;;6.63;;
73672;SDS011;61972;19.480;-99.240;2023-04-24T07:23:57;7.95;;;6.55;;
73672;SDS011;61972;19.480;-99.240;2023-04-24T07:26:24;7.47;;;6.68;;
73672;SDS011;61972;19.480;-99.240;2023-04-24T07:28:51;7.82;;;6.38;;
73672;SDS011;61972;19.480;-99.240;2023-04-24T07:31:19;8.13;;;6.38;;
73672;SDS011;61972;19.480;-99.240;2023-04-24T07:33:46;7.83;;;6.57;;
73672;SDS011;61972;19.480;-99.240;2023-04-24T07:36:12;9.85;;;7.10;;
73672;SDS011;61972;19.480;-99.240;2023-04-24T07:38:42;8.98;;;6.70;;
73672;SDS011;61972;19.480;-99.240;2023-04-24T07:41:08;7.68;;;6.50;;
73672;SDS011;61972;19.480;-99.240;2023-04-24T07:43:34;7.72;;;6.78;;
73672;SDS011;61972;19.480;-99.240;2023-04-24T07:46:01;10.10;;;6.90;;
73672;SDS011;61972;19.480;-99.240;2023-04-24T07:48:27;7.90;;;6.60;;
73672;SDS011;61972;19.480;-99.240;2023-04-24T07:50:53;7.70;;;6.30;;
73672;SDS011;61972;19.480;-99.240;2023-04-24T07:53:19;8.27;;;6.80;;
73672;SDS011;61972;19.480;-99.240;2023-04-24T07:55:45;8.57;;;6.38;;
73672;SDS011;61972;19.480;-99.240;2023-04-24T07:58:12;8.30;;;6.40;;
73672;SDS011;61972;19.480;-99.240;2023-04-24T08:00:38;7.72;;;6.20;;
73672;SDS011;61972;19.480;-99.240;2023-04-24T08:03:04;7.93;;;6.55;;
73672;SDS011;61972;19.480;-99.240;2023-04-24T08:05:30;7.43;;;6.10;;
73672;SDS011;61972;19.480;-99.240;2023-04-24T08:07:56;7.30;;;6.07;;
73672;SDS011;61972;19.480;-99.240;2023-04-24T08:10:24;8.60;;;6.30;;
73672;SDS011;61972;19.480;-99.240;2023-04-24T08:12:51;7.47;;;6.05;;
73672;SDS011;61972;19.480;-99.240;2023-04-24T08:15:17;8.77;;;6.30;;
73672;SDS011;61972;19.480;-99.240;2023-04-24T08:17:43;6.95;;;5.78;;
73672;SDS011;61972;19.480;-99.240;2023-04-24T08:20:10;7.85;;;6.20;;
73672;SDS011;61972;19.480;-99.240;2023-04-24T08:22:42;7.50;;;5.70;;
73672;SDS011;61972;19.480;-99.240;2023-04-24T08:25:09;7.72;;;5.78;;
73672;SDS011;61972;19.480;-99.240;2023-04-24T08:27:36;8.48;;;6.10;;
73672;SDS011;61972;19.480;-99.240;2023-04-24T08:30:03;20.02;;;6.38;;
73672;SDS011;61972;19.480;-99.240;2023-04-24T08:32:30;12.32;;;7.47;;
73672;SDS011;61972;19.480;-99.240;2023-04-24T08:34:56;10.80;;;8.20;;
73672;SDS011;61972;19.480;-99.240;2023-04-24T08:37:23;10.90;;;8.48;;
73672;SDS011;61972;19.480;-99.240;2023-04-24T08:39:49;10.32;;;8.45;;
73672;SDS011;61972;19.480;-99.240;2023-04-24T08:42:16;13.00;;;8.75;;
73672;SDS011;61972;19.480;-99.240;2023-04-24T08:44:43;15.13;;;9.27;;
73672;SDS011;61972;19.480;-99.240;2023-04-24T08:47:10;12.33;;;9.03;;
73672;SDS011;61972;19.480;-99.240;2023-04-24T08:49:37;13.40;;;9.38;;
73672;SDS011;61972;19.480;-99.240;2023-04-24T08:52:04;10.55;;;9.35;;
73672;SDS011;61972;19.480;-99.240;2023-04-24T08:54:40;12.40;;;9.73;;
73672;SDS011;61972;19.480;-99.240;2023-04-24T08:57:10;11.80;;;9.48;;
73672;SDS011;61972;19.480;-99.240;2023-04-24T08:59:39;12.10;;;9.37;;
73672;SDS011;61972;19.480;-99.240;2023-04-24T09:02:06;13.82;;;9.93;;
73672;SDS011;61972;19.480;-99.240;2023-04-24T09:04:36;12.70;;;9.80;;
73672;SDS011;61972;19.480;-99.240;2023-04-24T09:07:03;12.45;;;10.15;;
73672;SDS011;61972;19.480;-99.240;2023-04-24T09:09:32;15.52;;;10.20;;
73672;SDS011;61972;19.480;-99.240;2023-04-24T09:11:58;14.03;;;9.80;;
73672;SDS011;61972;19.480;-99.240;2023-04-24T09:14:25;13.77;;;10.55;;
73672;SDS011;61972;19.480;-99.240;2023-04-24T09:16:53;14.75;;;10.55;;
73672;SDS011;61972;19.480;-99.240;2023-04-24T09:19:19;16.42;;;10.70;;
73672;SDS011;61972;19.480;-99.240;2023-04-24T09:21:46;16.48;;;10.27;;
73672;SDS011;61972;19.480;-99.240;2023-04-24T09:24:19;16.27;;;10.83;;
73672;SDS011;61972;19.480;-99.240;2023-04-24T09:26:55;13.52;;;10.35;;
73672;SDS011;61972;19.480;-99.240;2023-04-24T09:29:24;15.30;;;10.20;;
73672;SDS011;61972;19.480;-99.240;2023-04-24T09:31:50;16.58;;;10.52;;
73672;SDS011;61972;19.480;-99.240;2023-04-24T09:34:20;14.55;;;10.43;;
73672;SDS011;61972;19.480;-99.240;2023-04-24T09:36:48;16.27;;;10.60;;
73672;SDS011;61972;19.480;-99.240;2023-04-24T09:39:15;15.48;;;9.88;;
73672;SDS011;61972;19.480;-99.240;2023-04-24T09:41:45;15.05;;;9.88;;
73672;SDS011;61972;19.480;-99.240;2023-04-24T09:44:20;12.93;;;10.13;;
73672;SDS011;61972;19.480;-99.240;2023-04-24T09:47:08;13.50;;;10.00;;
73672;SDS011;61972;19.480;-99.240;2023-04-24T09:49:35;13.60;;;9.80;;
73672;SDS011;61972;19.480;-99.240;2023-04-24T09:52:08;13.98;;;9.63;;
73672;SDS011;61972;19.480;-99.240;2023-04-24T09:54:36;14.80;;;10.20;;
73672;SDS011;61972;19.480;-99.240;2023-04-24T09:57:03;14.57;;;9.88;;
73672;SDS011;61972;19.480;-99.240;2023-04-24T09:59:30;11.93;;;9.88;;
73672;SDS011;61972;19.480;-99.240;2023-04-24T10:01:56;13.53;;;9.97;;
73672;SDS011;61972;19.480;-99.240;2023-04-24T10:04:24;11.20;;;9.70;;
73672;SDS011;61972;19.480;-99.240;2023-04-24T10:06:53;12.30;;;9.80;;
73672;SDS011;61972;19.480;-99.240;2023-04-24T10:09:21;13.02;;;9.48;;
73672;SDS011;61972;19.480;-99.240;2023-04-24T10:11:52;12.55;;;9.43;;
73672;SDS011;61972;19.480;-99.240;2023-04-24T10:14:23;12.67;;;8.90;;
73672;SDS011;61972;19.480;-99.240;2023-04-24T10:16:52;11.63;;;9.27;;
73672;SDS011;61972;19.480;-99.240;2023-04-24T10:19:19;10.13;;;9.00;;
73672;SDS011;61972;19.480;-99.240;2023-04-24T10:21:45;10.13;;;8.30;;
73672;SDS011;61972;19.480;-99.240;2023-04-24T10:24:17;12.57;;;9.25;;
73672;SDS011;61972;19.480;-99.240;2023-04-24T10:26:47;12.33;;;9.40;;
73672;SDS011;61972;19.480;-99.240;2023-04-24T10:29:14;11.82;;;9.40;;
73672;SDS011;61972;19.480;-99.240;2023-04-24T10:31:42;11.85;;;8.82;;
73672;SDS011;61972;19.480;-99.240;2023-04-24T10:34:11;10.68;;;8.55;;
73672;SDS011;61972;19.480;-99.240;2023-04-24T10:36:46;11.15;;;8.88;;
73672;SDS011;61972;19.480;-99.240;2023-04-24T10:39:16;12.23;;;8.93;;
73672;SDS011;61972;19.480;-99.240;2023-04-24T10:41:43;11.07;;;8.77;;
73672;SDS011;61972;19.480;-99.240;2023-04-24T10:44:10;10.15;;;8.50;;
73672;SDS011;61972;19.480;-99.240;2023-04-24T10:46:38;11.45;;;8.68;;
73672;SDS011;61972;19.480;-99.240;2023-04-24T10:49:06;9.70;;;8.65;;
73672;SDS011;61972;19.480;-99.240;2023-04-24T10:51:47;10.53;;;9.00;;
73672;SDS011;61972;19.480;-99.240;2023-04-24T10:54:41;10.82;;;8.85;;
73672;SDS011;61972;19.480;-99.240;2023-04-24T10:59:45;10.60;;;8.57;;
73672;SDS011;61972;19.480;-99.240;2023-04-24T11:02:14;11.20;;;8.57;;
73672;SDS011;61972;19.480;-99.240;2023-04-24T11:04:40;10.77;;;9.00;;
73672;SDS011;61972;19.480;-99.240;2023-04-24T11:07:10;10.30;;;8.02;;
73672;SDS011;61972;19.480;-99.240;2023-04-24T11:09:37;10.65;;;8.27;;
73672;SDS011;61972;19.480;-99.240;2023-04-24T11:12:06;10.38;;;8.50;;
73672;SDS011;61972;19.480;-99.240;2023-04-24T11:20:03;10.88;;;7.97;;
73672;SDS011;61972;19.480;-99.240;2023-04-24T11:22:35;10.38;;;8.00;;
73672;SDS011;61972;19.480;-99.240;2023-04-24T11:25:03;11.40;;;7.95;;
73672;SDS011;61972;19.480;-99.240;2023-04-24T11:27:30;10.10;;;8.07;;
73672;SDS011;61972;19.480;-99.240;2023-04-24T11:29:59;10.07;;;8.17;;
73672;SDS011;61972;19.480;-99.240;2023-04-24T11:32:30;11.02;;;8.23;;
73672;SDS011;61972;19.480;-99.240;2023-04-24T11:34:57;10.25;;;8.70;;
73672;SDS011;61972;19.480;-99.240;2023-04-24T11:37:38;10.43;;;7.93;;
73672;SDS011;61972;19.480;-99.240;2023-04-24T11:40:06;9.60;;;8.15;;
73672;SDS011;61972;19.480;-99.240;2023-04-24T11:45:13;9.93;;;7.75;;
73672;SDS011;61972;19.480;-99.240;2023-04-24T11:47:43;9.23;;;7.65;;
73672;SDS011;61972;19.480;-99.240;2023-04-24T11:50:11;10.15;;;7.93;;
73672;SDS011;61972;19.480;-99.240;2023-04-24T11:52:42;9.65;;;7.93;;
73672;SDS011;61972;19.480;-99.240;2023-04-24T11:57:48;10.65;;;8.57;;
73672;SDS011;61972;19.480;-99.240;2023-04-24T12:00:33;9.43;;;7.50;;
73672;SDS011;61972;19.480;-99.240;2023-04-24T12:03:03;9.68;;;7.55;;
73672;SDS011;61972;19.480;-99.240;2023-04-24T12:05:37;8.77;;;7.53;;
73672;SDS011;61972;19.480;-99.240;2023-04-24T12:08:04;8.80;;;7.50;;
73672;SDS011;61972;19.480;-99.240;2023-04-24T12:10:31;9.25;;;7.50;;
73672;SDS011;61972;19.480;-99.240;2023-04-24T12:12:58;9.23;;;7.65;;
73672;SDS011;61972;19.480;-99.240;2023-04-24T12:15:25;9.75;;;8.10;;
73672;SDS011;61972;19.480;-99.240;2023-04-24T12:17:53;10.02;;;7.18;;
73672;SDS011;61972;19.480;-99.240;2023-04-24T12:20:27;10.50;;;7.57;;
73672;SDS011;61972;19.480;-99.240;2023-04-24T12:22:55;13.05;;;7.75;;
73672;SDS011;61972;19.480;-99.240;2023-04-24T12:25:23;11.13;;;7.32;;
73672;SDS011;61972;19.480;-99.240;2023-04-24T12:27:55;9.85;;;7.68;;
73672;SDS011;61972;19.480;-99.240;2023-04-24T12:30:31;9.00;;;7.03;;
73672;SDS011;61972;19.480;-99.240;2023-04-24T12:33:04;10.13;;;7.27;;
73672;SDS011;61972;19.480;-99.240;2023-04-24T12:35:30;11.48;;;7.80;;
73672;SDS011;61972;19.480;-99.240;2023-04-24T12:40:40;10.13;;;7.32;;
73672;SDS011;61972;19.480;-99.240;2023-04-24T12:43:14;10.30;;;7.40;;
73672;SDS011;61972;19.480;-99.240;2023-04-24T12:45:41;8.20;;;7.00;;
73672;SDS011;61972;19.480;-99.240;2023-04-24T12:48:07;8.60;;;7.32;;
73672;SDS011;61972;19.480;-99.240;2023-04-24T12:50:33;10.43;;;7.40;;
73672;SDS011;61972;19.480;-99.240;2023-04-24T12:52:59;10.98;;;7.20;;
73672;SDS011;61972;19.480;-99.240;2023-04-24T12:55:25;8.55;;;7.38;;
73672;SDS011;61972;19.480;-99.240;2023-04-24T12:57:51;8.10;;;7.10;;
73672;SDS011;61972;19.480;-99.240;2023-04-24T13:00:20;8.38;;;6.90;;
73672;SDS011;61972;19.480;-99.240;2023-04-24T13:02:46;11.88;;;8.40;;
73672;SDS011;61972;19.480;-99.240;2023-04-24T13:05:12;13.65;;;9.82;;
73672;SDS011;61972;19.480;-99.240;2023-04-24T13:07:39;15.75;;;10.57;;
73672;SDS011;61972;19.480;-99.240;2023-04-24T13:10:06;15.47;;;10.63;;
73672;SDS011;61972;19.480;-99.240;2023-04-24T13:12:32;16.52;;;11.05;;
73672;SDS011;61972;19.480;-99.240;2023-04-24T13:15:00;17.83;;;11.13;;
73672;SDS011;61972;19.480;-99.240;2023-04-24T13:17:26;15.05;;;10.35;;
73672;SDS011;61972;19.480;-99.240;2023-04-24T13:19:53;17.85;;;11.50;;
73672;SDS011;61972;19.480;-99.240;2023-04-24T13:22:20;13.53;;;9.93;;
73672;SDS011;61972;19.480;-99.240;2023-04-24T13:24:47;19.00;;;10.80;;
73672;SDS011;61972;19.480;-99.240;2023-04-24T13:27:15;20.88;;;10.70;;
73672;SDS011;61972;19.480;-99.240;2023-04-24T13:29:42;21.90;;;11.60;;
73672;SDS011;61972;19.480;-99.240;2023-04-24T13:32:08;18.25;;;11.48;;
73672;SDS011;61972;19.480;-99.240;2023-04-24T13:34:35;15.30;;;11.00;;
73672;SDS011;61972;19.480;-99.240;2023-04-24T13:42:23;15.52;;;11.40;;
73672;SDS011;61972;19.480;-99.240;2023-04-24T13:44:49;15.88;;;11.57;;
73672;SDS011;61972;19.480;-99.240;2023-04-24T13:47:16;14.85;;;11.43;;
73672;SDS011;61972;19.480;-99.240;2023-04-24T13:49:42;16.50;;;11.57;;
73672;SDS011;61972;19.480;-99.240;2023-04-24T13:52:08;17.65;;;11.43;;
73672;SDS011;61972;19.480;-99.240;2023-04-24T13:54:35;16.20;;;10.60;;
73672;SDS011;61972;19.480;-99.240;2023-04-24T13:57:02;12.82;;;10.80;;
73672;SDS011;61972;19.480;-99.240;2023-04-24T13:59:29;16.27;;;11.00;;
73672;SDS011;61972;19.480;-99.240;2023-04-24T14:01:55;14.07;;;10.60;;
73672;SDS011;61972;19.480;-99.240;2023-04-24T14:04:21;16.25;;;10.88;;
73672;SDS011;61972;19.480;-99.240;2023-04-24T14:06:47;14.82;;;10.48;;
73672;SDS011;61972;19.480;-99.240;2023-04-24T14:09:13;16.83;;;10.93;;
73672;SDS011;61972;19.480;-99.240;2023-04-24T14:11:39;15.70;;;10.68;;
73672;SDS011;61972;19.480;-99.240;2023-04-24T14:14:06;13.90;;;10.00;;
73672;SDS011;61972;19.480;-99.240;2023-04-24T14:16:33;17.42;;;10.57;;
73672;SDS011;61972;19.480;-99.240;2023-04-24T14:19:00;13.93;;;10.82;;
73672;SDS011;61972;19.480;-99.240;2023-04-24T14:21:26;15.43;;;11.05;;
73672;SDS011;61972;19.480;-99.240;2023-04-24T14:23:52;15.20;;;11.40;;
73672;SDS011;61972;19.480;-99.240;2023-04-24T14:26:19;14.07;;;10.93;;
73672;SDS011;61972;19.480;-99.240;2023-04-24T14:28:45;14.27;;;11.05;;
73672;SDS011;61972;19.480;-99.240;2023-04-24T14:31:11;14.55;;;10.63;;
73672;SDS011;61972;19.480;-99.240;2023-04-24T14:33:37;14.82;;;10.35;;